sensor_id;sensor_type;location;lat;lon;timestamp;P1;durP1;ratioP1;P2;durP2;ratioP2
789;SDS011;378;48.844;9.156;2023-04-06T00:01:36;14.15;;;7.40;;
789;SDS011;378;48.844;9.156;2023-04-06T00:04:03;13.43;;;7.03;;
789;SDS011;378;48.844;9.156;2023-04-06T00:06:31;12.00;;;7.57;;
789;SDS011;378;48.844;9.156;2023-04-06T00:08:58;15.35;;;7.15;;
789;SDS011;378;48.844;9.156;2023-04-06T00:11:26;14.93;;;7.77;;
789;SDS011;378;48.844;9.156;2023-04-06T00:13:54;16.20;;;7.80;;
789;SDS011;378;48.844;9.156;2023-04-06T00:16:21;15.03;;;8.20;;
789;SDS011;378;48.844;9.156;2023-04-06T00:18:48;17.67;;;9.27;;
789;SDS011;378;48.844;9.156;2023-04-06T00:21:15;16.67;;;8.13;;
789;SDS011;378;48.844;9.156;2023-04-06T00:23:42;15.10;;;7.55;;
789;SDS011;378;48.844;9.156;2023-04-06T00:26:09;18.08;;;7.97;;
789;SDS011;378;48.844;9.156;2023-04-06T00:28:36;14.63;;;8.75;;
789;SDS011;378;48.844;9.156;2023-04-06T00:31:05;15.77;;;7.93;;
789;SDS011;378;48.844;9.156;2023-04-06T00:33:31;12.77;;;7.15;;
789;SDS011;378;48.844;9.156;2023-04-06T00:35:58;13.35;;;7.30;;
789;SDS011;378;48.844;9.156;2023-04-06T00:38:25;15.25;;;7.35;;
789;SDS011;378;48.844;9.156;2023-04-06T00:40:52;15.90;;;7.85;;
789;SDS011;378;48.844;9.156;2023-04-06T00:43:19;17.47;;;8.07;;
789;SDS011;378;48.844;9.156;2023-04-06T00:45:46;17.42;;;7.85;;
789;SDS011;378;48.844;9.156;2023-04-06T00:48:15;16.27;;;8.43;;
789;SDS011;378;48.844;9.156;2023-04-06T00:50:43;16.77;;;8.40;;
789;SDS011;378;48.844;9.156;2023-04-06T00:53:09;13.77;;;7.57;;
789;SDS011;378;48.844;9.156;2023-04-06T00:55:36;13.32;;;7.30;;
789;SDS011;378;48.844;9.156;2023-04-06T00:58:05;14.90;;;7.57;;
789;SDS011;378;48.844;9.156;2023-04-06T01:00:32;15.50;;;9.07;;
789;SDS011;378;48.844;9.156;2023-04-06T01:02:59;16.58;;;8.65;;
789;SDS011;378;48.844;9.156;2023-04-06T01:05:28;18.83;;;8.65;;
789;SDS011;378;48.844;9.156;2023-04-06T01:07:54;14.13;;;7.73;;
789;SDS011;378;48.844;9.156;2023-04-06T01:10:22;16.45;;;8.95;;
789;SDS011;378;48.844;9.156;2023-04-06T01:12:50;16.57;;;8.00;;
789;SDS011;378;48.844;9.156;2023-04-06T01:15:16;14.43;;;8.07;;
789;SDS011;378;48.844;9.156;2023-04-06T01:17:43;16.98;;;8.35;;
789;SDS011;378;48.844;9.156;2023-04-06T01:20:10;15.30;;;8.07;;
789;SDS011;378;48.844;9.156;2023-04-06T01:22:39;17.03;;;9.03;;
789;SDS011;378;48.844;9.156;2023-04-06T01:25:06;17.80;;;9.03;;
789;SDS011;378;48.844;9.156;2023-04-06T01:27:34;16.30;;;8.53;;
789;SDS011;378;48.844;9.156;2023-04-06T01:30:01;15.87;;;7.73;;
789;SDS011;378;48.844;9.156;2023-04-06T01:32:28;19.63;;;8.50;;
789;SDS011;378;48.844;9.156;2023-04-06T01:34:55;15.90;;;8.50;;
789;SDS011;378;48.844;9.156;2023-04-06T01:37:22;17.27;;;7.50;;
789;SDS011;378;48.844;9.156;2023-04-06T01:39:50;15.80;;;8.03;;
789;SDS011;378;48.844;9.156;2023-04-06T01:42:18;16.80;;;8.33;;
789;SDS011;378;48.844;9.156;2023-04-06T01:44:45;18.43;;;8.20;;
789;SDS011;378;48.844;9.156;2023-04-06T01:47:11;15.90;;;7.73;;
789;SDS011;378;48.844;9.156;2023-04-06T01:49:38;14.43;;;7.87;;
789;SDS011;378;48.844;9.156;2023-04-06T01:52:05;18.10;;;9.88;;
789;SDS011;378;48.844;9.156;2023-04-06T01:54:32;17.23;;;9.03;;
789;SDS011;378;48.844;9.156;2023-04-06T01:57:00;19.90;;;8.90;;
789;SDS011;378;48.844;9.156;2023-04-06T01:59:27;13.63;;;7.50;;
789;SDS011;378;48.844;9.156;2023-04-06T02:01:54;16.02;;;7.70;;
789;SDS011;378;48.844;9.156;2023-04-06T02:04:21;14.73;;;7.87;;
789;SDS011;378;48.844;9.156;2023-04-06T02:06:48;14.93;;;7.47;;
789;SDS011;378;48.844;9.156;2023-04-06T02:09:15;16.47;;;7.73;;
789;SDS011;378;48.844;9.156;2023-04-06T02:11:42;16.57;;;7.60;;
789;SDS011;378;48.844;9.156;2023-04-06T02:14:10;14.10;;;7.50;;
789;SDS011;378;48.844;9.156;2023-04-06T02:16:37;15.43;;;7.50;;
789;SDS011;378;48.844;9.156;2023-04-06T02:19:04;14.27;;;7.45;;
789;SDS011;378;48.844;9.156;2023-04-06T02:21:31;12.67;;;7.03;;
789;SDS011;378;48.844;9.156;2023-04-06T02:23:58;16.77;;;7.87;;
789;SDS011;378;48.844;9.156;2023-04-06T02:26:24;19.60;;;8.63;;
789;SDS011;378;48.844;9.156;2023-04-06T02:28:51;17.53;;;8.10;;
789;SDS011;378;48.844;9.156;2023-04-06T02:31:20;15.50;;;8.00;;
789;SDS011;378;48.844;9.156;2023-04-06T02:33:47;14.90;;;7.80;;
789;SDS011;378;48.844;9.156;2023-04-06T02:36:13;15.93;;;7.50;;
789;SDS011;378;48.844;9.156;2023-04-06T02:38:41;18.03;;;8.10;;
789;SDS011;378;48.844;9.156;2023-04-06T02:41:08;16.97;;;8.47;;
789;SDS011;378;48.844;9.156;2023-04-06T02:43:35;11.97;;;7.87;;
789;SDS011;378;48.844;9.156;2023-04-06T02:46:02;15.40;;;7.67;;
789;SDS011;378;48.844;9.156;2023-04-06T02:48:31;20.30;;;7.57;;
789;SDS011;378;48.844;9.156;2023-04-06T02:51:01;17.13;;;7.80;;
789;SDS011;378;48.844;9.156;2023-04-06T02:53:27;16.10;;;7.80;;
789;SDS011;378;48.844;9.156;2023-04-06T02:55:54;18.97;;;8.97;;
789;SDS011;378;48.844;9.156;2023-04-06T02:58:22;15.33;;;7.30;;
789;SDS011;378;48.844;9.156;2023-04-06T03:00:48;15.67;;;8.10;;
789;SDS011;378;48.844;9.156;2023-04-06T03:03:15;17.83;;;8.53;;
789;SDS011;378;48.844;9.156;2023-04-06T03:05:44;13.80;;;7.30;;
789;SDS011;378;48.844;9.156;2023-04-06T03:08:11;14.57;;;8.52;;
789;SDS011;378;48.844;9.156;2023-04-06T03:10:37;13.83;;;7.70;;
789;SDS011;378;48.844;9.156;2023-04-06T03:13:04;15.43;;;8.10;;
789;SDS011;378;48.844;9.156;2023-04-06T03:15:31;20.90;;;8.87;;
789;SDS011;378;48.844;9.156;2023-04-06T03:17:58;15.37;;;8.07;;
789;SDS011;378;48.844;9.156;2023-04-06T03:20:25;18.83;;;8.43;;
789;SDS011;378;48.844;9.156;2023-04-06T03:22:53;18.80;;;8.70;;
789;SDS011;378;48.844;9.156;2023-04-06T03:25:20;16.07;;;7.47;;
789;SDS011;378;48.844;9.156;2023-04-06T03:27:47;19.83;;;7.90;;
789;SDS011;378;48.844;9.156;2023-04-06T03:30:14;16.83;;;8.83;;
789;SDS011;378;48.844;9.156;2023-04-06T03:32:42;17.20;;;8.53;;
789;SDS011;378;48.844;9.156;2023-04-06T03:35:09;21.17;;;10.32;;
789;SDS011;378;48.844;9.156;2023-04-06T03:37:36;15.40;;;8.93;;
789;SDS011;378;48.844;9.156;2023-04-06T03:40:05;15.07;;;8.27;;
789;SDS011;378;48.844;9.156;2023-04-06T03:42:32;15.83;;;9.07;;
789;SDS011;378;48.844;9.156;2023-04-06T03:44:59;18.77;;;10.40;;
789;SDS011;378;48.844;9.156;2023-04-06T03:47:26;16.57;;;8.93;;
789;SDS011;378;48.844;9.156;2023-04-06T03:49:53;15.70;;;8.77;;
789;SDS011;378;48.844;9.156;2023-04-06T03:52:20;21.90;;;9.23;;
789;SDS011;378;48.844;9.156;2023-04-06T03:54:48;18.93;;;9.10;;
789;SDS011;378;48.844;9.156;2023-04-06T03:57:16;19.27;;;8.47;;
789;SDS011;378;48.844;9.156;2023-04-06T03:59:43;18.43;;;8.90;;
789;SDS011;378;48.844;9.156;2023-04-06T04:02:10;19.70;;;8.50;;
789;SDS011;378;48.844;9.156;2023-04-06T04:04:37;18.10;;;8.50;;
789;SDS011;378;48.844;9.156;2023-04-06T04:07:04;18.33;;;8.47;;
789;SDS011;378;48.844;9.156;2023-04-06T04:09:31;17.87;;;8.30;;
789;SDS011;378;48.844;9.156;2023-04-06T04:11:58;17.63;;;8.63;;
789;SDS011;378;48.844;9.156;2023-04-06T04:14:26;14.63;;;8.37;;
789;SDS011;378;48.844;9.156;2023-04-06T04:16:53;15.87;;;8.17;;
789;SDS011;378;48.844;9.156;2023-04-06T04:19:20;15.07;;;8.03;;
789;SDS011;378;48.844;9.156;2023-04-06T04:21:47;18.05;;;10.18;;
789;SDS011;378;48.844;9.156;2023-04-06T04:24:14;21.20;;;9.27;;
789;SDS011;378;48.844;9.156;2023-04-06T04:26:41;19.60;;;9.17;;
789;SDS011;378;48.844;9.156;2023-04-06T04:29:08;15.57;;;9.13;;
789;SDS011;378;48.844;9.156;2023-04-06T04:31:36;19.37;;;8.80;;
789;SDS011;378;48.844;9.156;2023-04-06T04:34:03;19.43;;;8.77;;
789;SDS011;378;48.844;9.156;2023-04-06T04:36:31;21.43;;;9.23;;
789;SDS011;378;48.844;9.156;2023-04-06T04:38:58;16.03;;;7.97;;
789;SDS011;378;48.844;9.156;2023-04-06T04:41:26;18.80;;;8.57;;
789;SDS011;378;48.844;9.156;2023-04-06T04:43:53;17.00;;;8.67;;
789;SDS011;378;48.844;9.156;2023-04-06T04:46:20;21.08;;;10.40;;
789;SDS011;378;48.844;9.156;2023-04-06T04:48:48;14.93;;;8.80;;
789;SDS011;378;48.844;9.156;2023-04-06T04:51:15;17.43;;;8.93;;
789;SDS011;378;48.844;9.156;2023-04-06T04:53:42;21.10;;;8.77;;
789;SDS011;378;48.844;9.156;2023-04-06T04:56:09;14.77;;;8.23;;
789;SDS011;378;48.844;9.156;2023-04-06T04:58:35;16.77;;;8.00;;
789;SDS011;378;48.844;9.156;2023-04-06T05:01:02;17.07;;;8.70;;
789;SDS011;378;48.844;9.156;2023-04-06T05:03:30;24.90;;;8.83;;
789;SDS011;378;48.844;9.156;2023-04-06T05:06:00;20.30;;;8.90;;
789;SDS011;378;48.844;9.156;2023-04-06T05:08:27;15.83;;;8.73;;
789;SDS011;378;48.844;9.156;2023-04-06T05:10:53;16.30;;;8.53;;
789;SDS011;378;48.844;9.156;2023-04-06T05:13:20;17.57;;;8.53;;
789;SDS011;378;48.844;9.156;2023-04-06T05:15:47;19.27;;;8.03;;
789;SDS011;378;48.844;9.156;2023-04-06T05:18:14;19.20;;;8.47;;
789;SDS011;378;48.844;9.156;2023-04-06T05:20:42;18.43;;;8.97;;
789;SDS011;378;48.844;9.156;2023-04-06T05:23:11;21.55;;;10.80;;
789;SDS011;378;48.844;9.156;2023-04-06T05:25:37;24.17;;;9.80;;
789;SDS011;378;48.844;9.156;2023-04-06T05:28:04;15.73;;;9.57;;
789;SDS011;378;48.844;9.156;2023-04-06T05:30:31;19.87;;;8.73;;
789;SDS011;378;48.844;9.156;2023-04-06T05:32:58;15.98;;;8.77;;
789;SDS011;378;48.844;9.156;2023-04-06T05:35:25;21.08;;;9.20;;
789;SDS011;378;48.844;9.156;2023-04-06T05:37:52;16.60;;;8.93;;
789;SDS011;378;48.844;9.156;2023-04-06T05:40:20;15.27;;;8.93;;
789;SDS011;378;48.844;9.156;2023-04-06T05:42:47;16.23;;;9.07;;
789;SDS011;378;48.844;9.156;2023-04-06T05:45:14;18.20;;;8.60;;
789;SDS011;378;48.844;9.156;2023-04-06T05:47:43;17.02;;;8.93;;
789;SDS011;378;48.844;9.156;2023-04-06T05:50:11;17.83;;;8.68;;
789;SDS011;378;48.844;9.156;2023-04-06T05:52:38;16.50;;;9.02;;
789;SDS011;378;48.844;9.156;2023-04-06T05:55:08;22.25;;;9.27;;
789;SDS011;378;48.844;9.156;2023-04-06T05:57:37;15.13;;;9.63;;
789;SDS011;378;48.844;9.156;2023-04-06T06:00:05;20.58;;;9.43;;
789;SDS011;378;48.844;9.156;2023-04-06T06:02:34;19.30;;;9.38;;
789;SDS011;378;48.844;9.156;2023-04-06T06:05:02;29.98;;;9.23;;
789;SDS011;378;48.844;9.156;2023-04-06T06:07:29;19.58;;;9.45;;
789;SDS011;378;48.844;9.156;2023-04-06T06:09:56;22.17;;;9.98;;
789;SDS011;378;48.844;9.156;2023-04-06T06:12:23;19.80;;;9.63;;
789;SDS011;378;48.844;9.156;2023-04-06T06:14:51;23.00;;;9.65;;
789;SDS011;378;48.844;9.156;2023-04-06T06:17:18;17.17;;;8.52;;
789;SDS011;378;48.844;9.156;2023-04-06T06:19:45;18.90;;;8.88;;
789;SDS011;378;48.844;9.156;2023-04-06T06:22:12;20.92;;;9.35;;
789;SDS011;378;48.844;9.156;2023-04-06T06:24:39;18.23;;;8.80;;
789;SDS011;378;48.844;9.156;2023-04-06T06:27:06;23.52;;;8.95;;
789;SDS011;378;48.844;9.156;2023-04-06T06:29:33;16.73;;;9.18;;
789;SDS011;378;48.844;9.156;2023-04-06T06:32:02;21.48;;;8.85;;
789;SDS011;378;48.844;9.156;2023-04-06T06:34:29;17.42;;;8.77;;
789;SDS011;378;48.844;9.156;2023-04-06T06:36:56;17.65;;;9.50;;
789;SDS011;378;48.844;9.156;2023-04-06T06:39:23;20.25;;;9.18;;
789;SDS011;378;48.844;9.156;2023-04-06T06:41:50;19.33;;;8.85;;
789;SDS011;378;48.844;9.156;2023-04-06T06:44:17;18.95;;;8.80;;
789;SDS011;378;48.844;9.156;2023-04-06T06:46:44;23.13;;;9.07;;
789;SDS011;378;48.844;9.156;2023-04-06T06:49:12;16.85;;;8.27;;
789;SDS011;378;48.844;9.156;2023-04-06T06:51:39;22.27;;;9.32;;
789;SDS011;378;48.844;9.156;2023-04-06T06:54:06;19.85;;;9.23;;
789;SDS011;378;48.844;9.156;2023-04-06T06:56:35;22.13;;;9.68;;
789;SDS011;378;48.844;9.156;2023-04-06T06:59:03;18.20;;;8.65;;
789;SDS011;378;48.844;9.156;2023-04-06T07:01:31;18.58;;;9.13;;
789;SDS011;378;48.844;9.156;2023-04-06T07:03:58;19.65;;;9.75;;
789;SDS011;378;48.844;9.156;2023-04-06T07:06:26;21.52;;;9.55;;
789;SDS011;378;48.844;9.156;2023-04-06T07:08:53;23.80;;;9.65;;
789;SDS011;378;48.844;9.156;2023-04-06T07:11:20;19.60;;;9.63;;
789;SDS011;378;48.844;9.156;2023-04-06T07:13:47;18.17;;;9.25;;
789;SDS011;378;48.844;9.156;2023-04-06T07:16:15;21.25;;;9.27;;
789;SDS011;378;48.844;9.156;2023-04-06T07:18:41;17.10;;;8.95;;
789;SDS011;378;48.844;9.156;2023-04-06T07:21:08;25.33;;;10.15;;
789;SDS011;378;48.844;9.156;2023-04-06T07:23:37;22.58;;;9.68;;
789;SDS011;378;48.844;9.156;2023-04-06T07:26:04;21.35;;;10.30;;
789;SDS011;378;48.844;9.156;2023-04-06T07:28:31;18.25;;;9.40;;
789;SDS011;378;48.844;9.156;2023-04-06T07:30:58;16.05;;;9.55;;
789;SDS011;378;48.844;9.156;2023-04-06T07:33:24;16.40;;;9.25;;
789;SDS011;378;48.844;9.156;2023-04-06T07:35:54;25.02;;;9.95;;
789;SDS011;378;48.844;9.156;2023-04-06T07:38:21;23.75;;;9.35;;
789;SDS011;378;48.844;9.156;2023-04-06T07:40:50;17.83;;;9.52;;
789;SDS011;378;48.844;9.156;2023-04-06T07:43:17;17.17;;;9.25;;
789;SDS011;378;48.844;9.156;2023-04-06T07:45:43;19.48;;;9.65;;
789;SDS011;378;48.844;9.156;2023-04-06T07:48:10;17.63;;;9.57;;
789;SDS011;378;48.844;9.156;2023-04-06T07:50:38;20.20;;;9.45;;
789;SDS011;378;48.844;9.156;2023-04-06T07:53:05;19.85;;;9.80;;
789;SDS011;378;48.844;9.156;2023-04-06T07:55:32;18.15;;;9.18;;
789;SDS011;378;48.844;9.156;2023-04-06T07:58:00;22.13;;;9.65;;
789;SDS011;378;48.844;9.156;2023-04-06T08:00:27;18.23;;;9.93;;
789;SDS011;378;48.844;9.156;2023-04-06T08:02:54;18.75;;;9.90;;
789;SDS011;378;48.844;9.156;2023-04-06T08:05:21;18.77;;;9.55;;
789;SDS011;378;48.844;9.156;2023-04-06T08:07:48;21.52;;;9.68;;
789;SDS011;378;48.844;9.156;2023-04-06T08:10:15;15.70;;;9.38;;
789;SDS011;378;48.844;9.156;2023-04-06T08:12:42;17.25;;;9.40;;
789;SDS011;378;48.844;9.156;2023-04-06T08:15:10;20.92;;;9.02;;
789;SDS011;378;48.844;9.156;2023-04-06T08:17:37;19.65;;;9.30;;
789;SDS011;378;48.844;9.156;2023-04-06T08:20:05;18.33;;;9.80;;
789;SDS011;378;48.844;9.156;2023-04-06T08:22:32;16.52;;;9.50;;
789;SDS011;378;48.844;9.156;2023-04-06T08:24:59;13.15;;;8.60;;
789;SDS011;378;48.844;9.156;2023-04-06T08:27:26;15.77;;;8.82;;
789;SDS011;378;48.844;9.156;2023-04-06T08:29:53;16.35;;;9.20;;
789;SDS011;378;48.844;9.156;2023-04-06T08:32:21;17.88;;;9.40;;
789;SDS011;378;48.844;9.156;2023-04-06T08:34:48;18.52;;;9.65;;
789;SDS011;378;48.844;9.156;2023-04-06T08:37:15;14.77;;;8.57;;
789;SDS011;378;48.844;9.156;2023-04-06T08:39:42;17.80;;;8.35;;
789;SDS011;378;48.844;9.156;2023-04-06T08:42:10;16.77;;;8.73;;
789;SDS011;378;48.844;9.156;2023-04-06T08:44:42;17.85;;;8.30;;
789;SDS011;378;48.844;9.156;2023-04-06T08:47:10;14.02;;;8.82;;
789;SDS011;378;48.844;9.156;2023-04-06T08:49:39;13.30;;;7.88;;
789;SDS011;378;48.844;9.156;2023-04-06T08:52:08;14.93;;;8.35;;
789;SDS011;378;48.844;9.156;2023-04-06T08:54:37;15.95;;;8.07;;
789;SDS011;378;48.844;9.156;2023-04-06T08:57:04;13.20;;;7.88;;
789;SDS011;378;48.844;9.156;2023-04-06T08:59:31;16.55;;;8.07;;
789;SDS011;378;48.844;9.156;2023-04-06T09:01:58;13.77;;;7.47;;
789;SDS011;378;48.844;9.156;2023-04-06T09:04:27;13.80;;;7.93;;
789;SDS011;378;48.844;9.156;2023-04-06T09:06:55;13.93;;;7.53;;
789;SDS011;378;48.844;9.156;2023-04-06T09:09:22;16.88;;;7.47;;
789;SDS011;378;48.844;9.156;2023-04-06T09:11:51;12.48;;;6.80;;
789;SDS011;378;48.844;9.156;2023-04-06T09:14:32;13.38;;;7.30;;
789;SDS011;378;48.844;9.156;2023-04-06T09:17:01;14.85;;;7.80;;
789;SDS011;378;48.844;9.156;2023-04-06T09:19:28;11.30;;;7.03;;
789;SDS011;378;48.844;9.156;2023-04-06T09:22:02;12.43;;;7.22;;
789;SDS011;378;48.844;9.156;2023-04-06T09:24:39;15.30;;;7.60;;
789;SDS011;378;48.844;9.156;2023-04-06T09:27:06;12.98;;;7.20;;
789;SDS011;378;48.844;9.156;2023-04-06T09:29:33;11.48;;;7.53;;
789;SDS011;378;48.844;9.156;2023-04-06T09:32:02;13.15;;;8.25;;
789;SDS011;378;48.844;9.156;2023-04-06T09:34:30;13.07;;;7.60;;
789;SDS011;378;48.844;9.156;2023-04-06T09:36:58;11.43;;;6.80;;
789;SDS011;378;48.844;9.156;2023-04-06T09:39:26;11.80;;;7.35;;
789;SDS011;378;48.844;9.156;2023-04-06T09:41:53;11.65;;;6.95;;
789;SDS011;378;48.844;9.156;2023-04-06T09:44:20;11.50;;;7.43;;
789;SDS011;378;48.844;9.156;2023-04-06T09:46:49;12.15;;;6.78;;
789;SDS011;378;48.844;9.156;2023-04-06T09:49:15;12.73;;;6.90;;
789;SDS011;378;48.844;9.156;2023-04-06T09:51:45;11.80;;;6.65;;
789;SDS011;378;48.844;9.156;2023-04-06T09:54:15;9.68;;;6.53;;
789;SDS011;378;48.844;9.156;2023-04-06T09:56:47;10.10;;;6.03;;
789;SDS011;378;48.844;9.156;2023-04-06T09:59:21;10.50;;;6.57;;
789;SDS011;378;48.844;9.156;2023-04-06T10:01:55;12.15;;;7.97;;
789;SDS011;378;48.844;9.156;2023-04-06T10:04:29;13.15;;;7.88;;
789;SDS011;378;48.844;9.156;2023-04-06T10:07:06;16.02;;;8.65;;
789;SDS011;378;48.844;9.156;2023-04-06T10:09:34;13.43;;;8.40;;
789;SDS011;378;48.844;9.156;2023-04-06T10:12:05;13.38;;;8.23;;
789;SDS011;378;48.844;9.156;2023-04-06T10:14:32;12.73;;;8.43;;
789;SDS011;378;48.844;9.156;2023-04-06T10:17:02;11.88;;;7.85;;
789;SDS011;378;48.844;9.156;2023-04-06T10:19:31;11.68;;;8.73;;
789;SDS011;378;48.844;9.156;2023-04-06T10:22:03;13.80;;;8.70;;
789;SDS011;378;48.844;9.156;2023-04-06T10:24:33;13.60;;;8.30;;
789;SDS011;378;48.844;9.156;2023-04-06T10:27:02;13.32;;;7.43;;
789;SDS011;378;48.844;9.156;2023-04-06T10:29:41;12.40;;;7.63;;
789;SDS011;378;48.844;9.156;2023-04-06T10:32:10;14.15;;;7.43;;
789;SDS011;378;48.844;9.156;2023-04-06T10:34:37;13.68;;;8.40;;
789;SDS011;378;48.844;9.156;2023-04-06T10:37:10;10.45;;;6.97;;
789;SDS011;378;48.844;9.156;2023-04-06T10:39:45;17.60;;;8.20;;
789;SDS011;378;48.844;9.156;2023-04-06T10:42:13;12.55;;;8.35;;
789;SDS011;378;48.844;9.156;2023-04-06T10:44:43;12.85;;;7.32;;
789;SDS011;378;48.844;9.156;2023-04-06T10:47:15;11.27;;;7.10;;
789;SDS011;378;48.844;9.156;2023-04-06T10:49:43;13.30;;;7.72;;
789;SDS011;378;48.844;9.156;2023-04-06T10:52:10;10.38;;;6.50;;
789;SDS011;378;48.844;9.156;2023-04-06T10:54:40;13.50;;;7.97;;
789;SDS011;378;48.844;9.156;2023-04-06T10:57:08;12.77;;;7.07;;
789;SDS011;378;48.844;9.156;2023-04-06T10:59:35;15.07;;;7.20;;
789;SDS011;378;48.844;9.156;2023-04-06T11:02:03;13.85;;;7.03;;
789;SDS011;378;48.844;9.156;2023-04-06T11:04:31;12.05;;;7.60;;
789;SDS011;378;48.844;9.156;2023-04-06T11:06:58;11.98;;;6.97;;
789;SDS011;378;48.844;9.156;2023-04-06T11:09:25;16.67;;;7.75;;
789;SDS011;378;48.844;9.156;2023-04-06T11:11:53;14.05;;;7.20;;
789;SDS011;378;48.844;9.156;2023-04-06T11:14:20;15.57;;;7.13;;
789;SDS011;378;48.844;9.156;2023-04-06T11:16:47;13.32;;;7.35;;
789;SDS011;378;48.844;9.156;2023-04-06T11:19:16;13.30;;;7.55;;
789;SDS011;378;48.844;9.156;2023-04-06T11:21:44;11.73;;;7.10;;
789;SDS011;378;48.844;9.156;2023-04-06T11:24:14;12.35;;;7.10;;
789;SDS011;378;48.844;9.156;2023-04-06T11:26:42;9.75;;;6.72;;
789;SDS011;378;48.844;9.156;2023-04-06T11:29:11;10.27;;;6.53;;
789;SDS011;378;48.844;9.156;2023-04-06T11:31:39;11.32;;;6.72;;
789;SDS011;378;48.844;9.156;2023-04-06T11:34:15;12.10;;;6.63;;
789;SDS011;378;48.844;9.156;2023-04-06T11:36:45;11.75;;;6.90;;
789;SDS011;378;48.844;9.156;2023-04-06T11:39:13;12.40;;;6.22;;
789;SDS011;378;48.844;9.156;2023-04-06T11:41:47;10.00;;;6.80;;
789;SDS011;378;48.844;9.156;2023-04-06T11:44:14;12.05;;;6.40;;
789;SDS011;378;48.844;9.156;2023-04-06T11:46:41;9.75;;;6.43;;
789;SDS011;378;48.844;9.156;2023-04-06T11:49:18;12.73;;;7.00;;
789;SDS011;378;48.844;9.156;2023-04-06T11:51:45;11.10;;;6.80;;
789;SDS011;378;48.844;9.156;2023-04-06T11:54:12;10.10;;;5.97;;
789;SDS011;378;48.844;9.156;2023-04-06T11:56:39;16.08;;;7.20;;
789;SDS011;378;48.844;9.156;2023-04-06T11:59:06;9.85;;;6.70;;
789;SDS011;378;48.844;9.156;2023-04-06T12:01:33;13.90;;;6.57;;
789;SDS011;378;48.844;9.156;2023-04-06T12:04:00;9.07;;;6.43;;
789;SDS011;378;48.844;9.156;2023-04-06T12:06:29;11.50;;;5.50;;
789;SDS011;378;48.844;9.156;2023-04-06T12:08:55;9.50;;;5.47;;
789;SDS011;378;48.844;9.156;2023-04-06T12:11:22;12.48;;;6.00;;
789;SDS011;378;48.844;9.156;2023-04-06T12:13:49;9.88;;;5.90;;
789;SDS011;378;48.844;9.156;2023-04-06T12:16:16;8.55;;;5.63;;
789;SDS011;378;48.844;9.156;2023-04-06T12:18:44;11.30;;;5.50;;
789;SDS011;378;48.844;9.156;2023-04-06T12:21:11;11.30;;;6.18;;
789;SDS011;378;48.844;9.156;2023-04-06T12:23:39;8.88;;;5.78;;
789;SDS011;378;48.844;9.156;2023-04-06T12:26:06;9.70;;;6.03;;
789;SDS011;378;48.844;9.156;2023-04-06T12:28:33;9.05;;;5.82;;
789;SDS011;378;48.844;9.156;2023-04-06T12:31:00;10.75;;;5.10;;
789;SDS011;378;48.844;9.156;2023-04-06T12:33:27;12.50;;;6.30;;
789;SDS011;378;48.844;9.156;2023-04-06T12:35:54;11.48;;;5.88;;
789;SDS011;378;48.844;9.156;2023-04-06T12:38:21;7.97;;;6.03;;
789;SDS011;378;48.844;9.156;2023-04-06T12:40:49;6.88;;;4.93;;
789;SDS011;378;48.844;9.156;2023-04-06T12:43:16;8.98;;;6.05;;
789;SDS011;378;48.844;9.156;2023-04-06T12:45:43;9.68;;;6.10;;
789;SDS011;378;48.844;9.156;2023-04-06T12:48:11;10.93;;;6.18;;
789;SDS011;378;48.844;9.156;2023-04-06T12:50:37;12.55;;;6.03;;
789;SDS011;378;48.844;9.156;2023-04-06T12:53:04;11.32;;;5.22;;
789;SDS011;378;48.844;9.156;2023-04-06T12:55:31;8.77;;;5.75;;
789;SDS011;378;48.844;9.156;2023-04-06T12:58:01;11.48;;;6.18;;
789;SDS011;378;48.844;9.156;2023-04-06T13:00:29;10.05;;;5.50;;
789;SDS011;378;48.844;9.156;2023-04-06T13:02:56;9.13;;;5.47;;
789;SDS011;378;48.844;9.156;2023-04-06T13:05:23;9.43;;;5.70;;
789;SDS011;378;48.844;9.156;2023-04-06T13:07:50;9.95;;;5.75;;
789;SDS011;378;48.844;9.156;2023-04-06T13:10:17;10.43;;;6.38;;
789;SDS011;378;48.844;9.156;2023-04-06T13:12:44;9.15;;;5.30;;
789;SDS011;378;48.844;9.156;2023-04-06T13:15:12;11.05;;;5.78;;
789;SDS011;378;48.844;9.156;2023-04-06T13:17:39;8.25;;;5.20;;
789;SDS011;378;48.844;9.156;2023-04-06T13:20:06;8.90;;;5.03;;
789;SDS011;378;48.844;9.156;2023-04-06T13:22:34;11.48;;;5.70;;
789;SDS011;378;48.844;9.156;2023-04-06T13:25:01;11.85;;;5.90;;
789;SDS011;378;48.844;9.156;2023-04-06T13:27:28;9.48;;;5.38;;
789;SDS011;378;48.844;9.156;2023-04-06T13:29:58;11.27;;;5.82;;
789;SDS011;378;48.844;9.156;2023-04-06T13:32:27;13.77;;;5.93;;
789;SDS011;378;48.844;9.156;2023-04-06T13:34:54;9.38;;;5.22;;
789;SDS011;378;48.844;9.156;2023-04-06T13:37:21;10.77;;;5.55;;
789;SDS011;378;48.844;9.156;2023-04-06T13:39:48;9.68;;;5.85;;
789;SDS011;378;48.844;9.156;2023-04-06T13:42:15;9.90;;;6.05;;
789;SDS011;378;48.844;9.156;2023-04-06T13:44:42;7.60;;;5.45;;
789;SDS011;378;48.844;9.156;2023-04-06T13:47:11;9.18;;;5.32;;
789;SDS011;378;48.844;9.156;2023-04-06T13:49:40;9.60;;;5.95;;
789;SDS011;378;48.844;9.156;2023-04-06T13:52:07;10.23;;;5.90;;
789;SDS011;378;48.844;9.156;2023-04-06T13:54:35;9.98;;;5.90;;
789;SDS011;378;48.844;9.156;2023-04-06T13:57:02;10.65;;;5.55;;
789;SDS011;378;48.844;9.156;2023-04-06T13:59:31;10.05;;;5.70;;
789;SDS011;378;48.844;9.156;2023-04-06T14:01:58;9.43;;;5.55;;
789;SDS011;378;48.844;9.156;2023-04-06T14:04:25;9.90;;;5.38;;
789;SDS011;378;48.844;9.156;2023-04-06T14:06:53;9.43;;;5.47;;
789;SDS011;378;48.844;9.156;2023-04-06T14:09:20;10.35;;;5.60;;
789;SDS011;378;48.844;9.156;2023-04-06T14:11:47;11.50;;;5.65;;
789;SDS011;378;48.844;9.156;2023-04-06T14:14:14;8.80;;;5.20;;
789;SDS011;378;48.844;9.156;2023-04-06T14:16:41;9.32;;;5.68;;
789;SDS011;378;48.844;9.156;2023-04-06T14:19:09;9.00;;;5.55;;
789;SDS011;378;48.844;9.156;2023-04-06T14:21:36;12.65;;;5.43;;
789;SDS011;378;48.844;9.156;2023-04-06T14:24:06;11.02;;;5.97;;
789;SDS011;378;48.844;9.156;2023-04-06T14:26:33;11.57;;;5.93;;
789;SDS011;378;48.844;9.156;2023-04-06T14:29:01;10.35;;;5.43;;
789;SDS011;378;48.844;9.156;2023-04-06T14:31:28;9.88;;;5.65;;
789;SDS011;378;48.844;9.156;2023-04-06T14:33:55;9.27;;;5.40;;
789;SDS011;378;48.844;9.156;2023-04-06T14:36:22;8.32;;;5.15;;
789;SDS011;378;48.844;9.156;2023-04-06T14:38:49;14.10;;;6.05;;
789;SDS011;378;48.844;9.156;2023-04-06T14:41:18;10.05;;;5.10;;
789;SDS011;378;48.844;9.156;2023-04-06T14:43:46;8.32;;;4.88;;
789;SDS011;378;48.844;9.156;2023-04-06T14:46:13;11.23;;;5.35;;
789;SDS011;378;48.844;9.156;2023-04-06T14:48:40;8.43;;;4.80;;
789;SDS011;378;48.844;9.156;2023-04-06T14:51:07;12.32;;;5.10;;
789;SDS011;378;48.844;9.156;2023-04-06T14:53:34;8.75;;;5.05;;
789;SDS011;378;48.844;9.156;2023-04-06T14:56:01;9.73;;;5.57;;
789;SDS011;378;48.844;9.156;2023-04-06T14:58:29;8.77;;;5.60;;
789;SDS011;378;48.844;9.156;2023-04-06T15:00:56;9.68;;;5.22;;
789;SDS011;378;48.844;9.156;2023-04-06T15:03:24;8.55;;;4.97;;
789;SDS011;378;48.844;9.156;2023-04-06T15:05:51;11.52;;;5.20;;
789;SDS011;378;48.844;9.156;2023-04-06T15:08:17;7.47;;;5.07;;
789;SDS011;378;48.844;9.156;2023-04-06T15:10:45;7.90;;;5.03;;
789;SDS011;378;48.844;9.156;2023-04-06T15:13:12;13.70;;;5.88;;
789;SDS011;378;48.844;9.156;2023-04-06T15:15:41;9.75;;;5.43;;
789;SDS011;378;48.844;9.156;2023-04-06T15:18:08;8.38;;;5.38;;
789;SDS011;378;48.844;9.156;2023-04-06T15:20:35;11.52;;;5.15;;
789;SDS011;378;48.844;9.156;2023-04-06T15:23:02;9.88;;;5.20;;
789;SDS011;378;48.844;9.156;2023-04-06T15:25:30;9.82;;;5.60;;
789;SDS011;378;48.844;9.156;2023-04-06T15:27:56;9.32;;;5.10;;
789;SDS011;378;48.844;9.156;2023-04-06T15:30:23;10.68;;;5.18;;
789;SDS011;378;48.844;9.156;2023-04-06T15:32:52;14.55;;;5.90;;
789;SDS011;378;48.844;9.156;2023-04-06T15:35:21;13.70;;;5.95;;